createdAt,value
2022-10-01T00:04:28.339Z,95533.13
2022-10-01T00:09:30.576Z,95533.13
2022-10-01T00:14:32.180Z,95533.91
2022-10-01T00:19:33.783Z,95537.03
2022-10-01T00:24:37.620Z,95533.56
2022-10-01T00:29:40.711Z,95543.34
2022-10-01T00:34:42.187Z,95527.72
2022-10-01T00:39:44.407Z,95539.50
2022-10-01T00:44:46.364Z,95539.50
2022-10-01T00:49:52.856Z,95534.09
2022-10-01T00:55:02.156Z,95529.78
2022-10-01T01:00:08.389Z,95544.69
2022-10-01T01:05:12.127Z,95543.53
2022-10-01T01:10:16.236Z,95536.50
2022-10-01T01:15:26.142Z,95537.31
2022-10-01T01:20:31.106Z,95532.25
2022-10-01T01:26:21.741Z,95529.56
2022-10-01T01:31:30.732Z,95535.03
2022-10-01T01:36:38.046Z,95519.81
2022-10-01T01:41:50.063Z,95524.56
2022-10-01T01:46:55.085Z,95519.09
2022-10-01T01:52:14.268Z,95516.03
2022-10-01T01:57:20.205Z,95511.75
2022-10-01T02:02:33.260Z,95504.03
2022-10-01T02:07:42.309Z,95505.22
2022-10-01T02:13:11.242Z,95499.03
2022-10-01T02:18:26.037Z,95505.72
2022-10-01T02:23:33.580Z,95505.75
2022-10-01T02:28:38.867Z,95505.75
2022-10-01T02:33:43.089Z,95501.09
2022-10-01T02:38:46.710Z,95492.16
2022-10-01T02:44:00.131Z,95490.97
2022-10-01T02:49:02.833Z,95487.06
2022-10-01T02:54:13.269Z,95483.59
2022-10-01T02:59:14.821Z,95489.50
2022-10-01T03:04:16.409Z,95485.59
2022-10-01T03:09:17.913Z,95484.88
2022-10-01T03:14:19.488Z,95479.44
2022-10-01T03:19:21.175Z,95475.59
2022-10-01T03:24:22.848Z,95489.63
2022-10-01T03:29:25.712Z,95490.03
2022-10-01T03:34:27.464Z,95477.56
2022-10-01T03:39:29.050Z,95470.97
2022-10-01T03:44:30.588Z,95466.25
2022-10-01T03:49:32.180Z,95456.50
2022-10-01T03:54:33.734Z,95454.56
2022-10-01T03:59:36.131Z,95451.44
2022-10-01T04:04:37.720Z,95454.19
2022-10-01T04:09:39.254Z,95441.28
2022-10-01T04:14:40.783Z,95439.75
2022-10-01T04:19:42.304Z,95442.84
2022-10-01T04:24:43.986Z,95443.66
2022-10-01T04:29:45.501Z,95442.88
2022-10-01T04:34:53.080Z,95434.72
2022-10-01T04:39:54.798Z,95444.06
2022-10-01T04:44:57.314Z,95441.34
2022-10-01T04:49:58.812Z,95423.81
2022-10-01T04:55:00.364Z,95444.09
2022-10-01T05:00:04.024Z,95445.25
2022-10-01T05:05:07.433Z,95443.72
2022-10-01T05:10:12.564Z,95446.84
2022-10-01T05:15:15.424Z,95448.81
2022-10-01T05:20:20.069Z,95453.09
2022-10-01T05:25:22.033Z,95442.56
2022-10-01T05:30:26.544Z,95442.94
2022-10-01T05:35:29.218Z,95437.47
2022-10-01T05:40:31.186Z,95444.09
2022-10-01T05:45:33.772Z,95447.59
2022-10-01T05:50:40.315Z,95452.66
2022-10-01T05:55:42.103Z,95460.06
2022-10-01T06:00:44.122Z,95461.63
2022-10-01T06:05:46.105Z,95461.25
2022-10-01T06:10:48.798Z,95463.19
2022-10-01T06:15:52.888Z,95459.31
2022-10-01T06:20:54.449Z,95456.97
2022-10-01T06:25:56.123Z,95460.84
2022-10-01T06:30:57.693Z,95463.19
2022-10-01T06:35:59.910Z,95468.22
2022-10-01T06:41:03.761Z,95457.69
2022-10-01T06:46:05.586Z,95456.47
2022-10-01T06:51:08.571Z,95454.88
2022-10-01T06:56:10.067Z,95458.38
2022-10-01T07:01:11.689Z,95450.56
2022-10-01T07:06:13.269Z,95445.13
2022-10-01T07:11:14.847Z,95445.88
2022-10-01T07:16:16.469Z,95432.22
2022-10-01T07:21:18.015Z,95432.59
2022-10-01T07:26:19.550Z,95441.56
2022-10-01T07:31:21.651Z,95442.72
2022-10-01T07:36:23.236Z,95442.72
2022-10-01T07:41:24.935Z,95436.09
2022-10-01T07:46:26.580Z,95434.50
2022-10-01T07:51:29.252Z,95432.94
2022-10-01T07:56:31.028Z,95428.25
2022-10-01T08:01:33.350Z,95425.91
2022-10-01T08:06:35.245Z,95419.19
2022-10-01T08:11:38.002Z,95419.97
2022-10-01T08:16:41.039Z,95403.91
2022-10-01T08:21:42.902Z,95393.31
2022-10-01T08:26:44.592Z,95394.47
2022-10-01T08:31:46.208Z,95399.53
2022-10-01T08:36:51.659Z,95406.97
2022-10-01T08:42:17.443Z,95412.78
2022-10-01T08:47:35.481Z,95404.16
2022-10-01T08:52:49.052Z,95395.94
2022-10-01T08:58:00.310Z,95411.56
2022-10-01T09:03:06.135Z,95413.88
2022-10-01T09:08:43.667Z,95414.22
2022-10-01T09:14:03.291Z,95416.94
2022-10-01T09:19:19.131Z,95432.53
2022-10-01T09:24:56.039Z,95437.56
2022-10-01T09:30:21.393Z,95440.25
2022-10-01T09:35:29.022Z,95430.06
2022-10-01T09:40:43.743Z,95425.34
2022-10-01T09:45:47.148Z,95423.31
2022-10-01T09:50:56.052Z,95418.22
2022-10-01T09:56:04.054Z,95416.63
2022-10-01T10:01:17.779Z,95414.22
2022-10-01T10:06:27.193Z,95404.00
2022-10-01T10:11:31.566Z,95396.22
2022-10-01T10:16:37.227Z,95397.88
2022-10-01T10:21:51.972Z,95379.50
2022-10-01T10:26:57.282Z,95376.94
2022-10-01T10:32:03.159Z,95371.16
2022-10-01T10:37:13.804Z,95389.91
2022-10-01T10:42:15.833Z,95361.38
2022-10-01T10:47:21.132Z,95352.81
2022-10-01T10:52:29.989Z,95344.31
2022-10-01T10:57:36.647Z,95338.06
2022-10-01T11:02:41.035Z,95334.13
2022-10-01T11:07:45.163Z,95334.19
2022-10-01T11:12:49.401Z,95332.22
2022-10-01T11:18:05.232Z,95315.75
2022-10-01T11:23:57.570Z,95321.28
2022-10-01T11:29:30.301Z,95318.59
2022-10-01T11:34:59.455Z,95286.31
2022-10-01T11:40:13.124Z,95317.19
2022-10-01T11:45:21.410Z,95313.69
2022-10-01T11:50:31.280Z,95297.69
2022-10-01T11:55:59.526Z,95303.13
2022-10-01T12:01:11.755Z,95272.25
2022-10-01T12:06:14.782Z,95268.03
2022-10-01T12:11:21.552Z,95285.16
2022-10-01T12:16:46.758Z,95297.94
2022-10-01T12:22:15.305Z,95297.94
2022-10-01T12:27:35.507Z,95323.25
2022-10-01T12:33:08.777Z,95321.31
2022-10-01T12:38:34.913Z,95329.09
2022-10-01T12:43:42.472Z,95338.88
2022-10-01T12:49:12.982Z,95306.78
2022-10-01T12:54:42.836Z,95321.59
2022-10-01T12:59:59.217Z,95319.63
2022-10-01T13:05:24.646Z,95325.09
2022-10-01T13:10:54.113Z,95316.44
2022-10-01T13:15:59.831Z,95319.13
2022-10-01T13:21:20.004Z,95317.09
2022-10-01T13:26:41.738Z,95325.72
2022-10-01T13:31:58.591Z,95319.44
2022-10-01T13:37:17.721Z,95310.38
2022-10-01T13:42:24.570Z,95328.66
2022-10-01T13:47:27.847Z,95327.81
2022-10-01T13:52:31.671Z,95330.16
2022-10-01T13:57:37.228Z,95340.72
2022-10-01T14:02:42.512Z,95347.78
2022-10-01T14:07:47.681Z,95352.81
2022-10-01T14:13:09.089Z,95343.44
2022-10-01T14:18:21.605Z,95345.75
2022-10-01T14:23:35.843Z,95347.78
2022-10-01T14:29:07.038Z,95352.44
2022-10-01T14:34:24.200Z,95339.53
2022-10-01T14:39:29.643Z,95343.47
2022-10-01T14:44:38.005Z,95336.84
2022-10-01T14:49:39.587Z,95337.63
2022-10-01T14:54:51.402Z,95327.44
2022-10-01T14:59:53.918Z,95339.91
2022-10-01T15:04:57.276Z,95334.38
2022-10-01T15:10:07.167Z,95323.41
2022-10-01T15:15:39.796Z,95331.22
2022-10-01T15:20:59.496Z,95322.59
2022-10-01T15:26:04.967Z,95338.22
2022-10-01T15:31:07.079Z,95331.94
2022-10-01T15:36:15.317Z,95332.69
2022-10-01T15:41:32.516Z,95350.25
2022-10-01T15:46:35.495Z,95341.66
2022-10-01T15:52:22.033Z,95342.44
2022-10-01T15:57:25.684Z,95343.94
2022-10-01T16:02:30.796Z,95357.97
2022-10-01T16:07:34.850Z,95359.88
2022-10-01T16:12:36.545Z,95362.97
2022-10-01T16:17:38.813Z,95365.63
2022-10-01T16:22:40.802Z,95376.59
2022-10-01T16:27:58.207Z,95371.81
2022-10-01T16:33:02.371Z,95374.16
2022-10-01T16:38:08.252Z,95383.88
2022-10-01T16:43:24.239Z,95396.00
2022-10-01T16:48:25.848Z,95393.66
2022-10-01T16:53:27.820Z,95390.50
2022-10-01T16:58:29.415Z,95399.41
2022-10-01T17:03:30.920Z,95404.91
2022-10-01T17:08:32.511Z,95413.09
2022-10-01T17:13:34.065Z,95407.25
2022-10-01T17:18:35.586Z,95420.13
2022-10-01T17:23:37.114Z,95426.38
2022-10-01T17:28:38.707Z,95434.97
2022-10-01T17:33:40.235Z,95439.28
2022-10-01T17:38:42.289Z,95448.97
2022-10-01T17:43:43.805Z,95445.84
2022-10-01T17:48:47.847Z,95459.13
2022-10-01T17:53:49.450Z,95468.91
2022-10-01T17:58:53.062Z,95472.84
2022-10-01T18:03:55.664Z,95478.69
2022-10-01T18:08:57.257Z,95488.44
2022-10-01T18:13:59.120Z,95499.00
2022-10-01T18:24:24.287Z,95503.63
2022-10-01T18:29:27.540Z,95502.00
2022-10-01T18:34:38.322Z,95502.00
2022-10-01T18:39:43.157Z,95508.25
2022-10-01T18:44:50.652Z,95510.59
2022-10-01T18:50:25.701Z,95518.47
2022-10-01T18:55:51.696Z,95524.72
2022-10-01T19:01:11.636Z,95538.47
2022-10-01T19:06:41.176Z,95532.22
2022-10-01T19:12:01.411Z,95540.84
2022-10-01T19:17:40.077Z,95544.00
2022-10-01T19:23:02.941Z,95542.84
2022-10-01T19:28:23.280Z,95549.09
2022-10-01T19:33:25.092Z,95566.31
2022-10-01T19:38:34.042Z,95572.94
2022-10-01T19:43:49.873Z,95586.66
2022-10-01T19:49:12.800Z,95601.13
2022-10-01T19:54:17.484Z,95601.50
2022-10-01T19:59:20.740Z,95616.75
2022-10-01T20:04:40.081Z,95621.47
2022-10-01T20:09:45.701Z,95632.41
2022-10-01T20:15:09.174Z,95638.31
2022-10-01T20:20:23.374Z,95651.97
2022-10-01T20:25:32.091Z,95673.13
2022-10-01T20:30:44.798Z,95660.97
2022-10-01T20:36:02.963Z,95683.31
2022-10-01T20:41:14.603Z,95691.13
2022-10-01T20:46:25.623Z,95702.81
2022-10-01T20:51:35.996Z,95713.00
2022-10-01T20:56:59.852Z,95725.56
2022-10-01T21:02:10.919Z,95732.56
2022-10-01T21:07:37.796Z,95734.16
2022-10-01T21:12:44.471Z,95746.28
2022-10-01T21:18:09.270Z,95758.38
2022-10-01T21:23:53.437Z,95752.47
2022-10-01T21:29:24.321Z,95754.81
2022-10-01T21:34:43.272Z,95762.28
2022-10-01T21:40:23.717Z,95761.91
2022-10-01T21:45:29.872Z,95766.94
2022-10-01T21:50:51.945Z,95773.97
2022-10-01T21:56:12.421Z,95783.34
2022-10-01T22:01:46.213Z,95790.78
2022-10-01T22:06:51.469Z,95782.91
2022-10-01T22:11:57.098Z,95800.09
2022-10-01T22:17:04.454Z,95818.06
2022-10-01T22:22:21.298Z,95828.25
2022-10-01T22:27:47.539Z,95846.66
2022-10-01T22:33:10.543Z,95841.97
2022-10-01T22:38:27.141Z,95852.13
2022-10-01T22:43:29.351Z,95868.94
2022-10-01T22:48:54.223Z,95866.56
2022-10-01T22:54:07.632Z,95875.59
2022-10-01T22:59:14.207Z,95880.25
2022-10-01T23:04:49.101Z,95892.00
2022-10-01T23:10:11.975Z,95900.63
2022-10-01T23:15:25.903Z,95903.78
2022-10-01T23:20:34.516Z,95908.88
2022-10-01T23:25:57.812Z,95922.19
2022-10-01T23:31:02.282Z,95919.06
2022-10-01T23:36:29.106Z,95924.53
2022-10-01T23:41:46.800Z,95925.31
2022-10-01T23:46:51.621Z,95928.81
2022-10-01T23:52:14.612Z,95938.63
2022-10-01T23:57:22.395Z,95944.50
